sensor_id;sensor_type;location;lat;lon;timestamp;P1;durP1;ratioP1;P2;durP2;ratioP2
22441;SDS011;11388;54.456;9.752;2023-07-20T00:13:45;2.08;;;1.63;;
22441;SDS011;11388;54.456;9.752;2023-07-20T00:17:09;3.83;;;1.98;;
22441;SDS011;11388;54.456;9.752;2023-07-20T00:54:12;2.88;;;1.90;;
22441;SDS011;11388;54.456;9.752;2023-07-20T00:56:44;3.17;;;1.90;;
22441;SDS011;11388;54.456;9.752;2023-07-20T00:59:13;3.80;;;1.80;;
22441;SDS011;11388;54.456;9.752;2023-07-20T01:01:47;2.15;;;1.75;;
22441;SDS011;11388;54.456;9.752;2023-07-20T01:04:46;4.20;;;1.70;;
22441;SDS011;11388;54.456;9.752;2023-07-20T01:08:02;1.55;;;1.45;;
22441;SDS011;11388;54.456;9.752;2023-07-20T01:11:09;2.25;;;1.35;;
22441;SDS011;11388;54.456;9.752;2023-07-20T01:13:53;3.45;;;1.42;;
22441;SDS011;11388;54.456;9.752;2023-07-20T01:16:47;1.83;;;1.58;;
22441;SDS011;11388;54.456;9.752;2023-07-20T01:31:46;3.00;;;1.60;;
22441;SDS011;11388;54.456;9.752;2023-07-20T01:34:32;1.45;;;1.00;;
22441;SDS011;11388;54.456;9.752;2023-07-20T01:37:19;2.03;;;1.40;;
22441;SDS011;11388;54.456;9.752;2023-07-20T01:43:11;2.13;;;1.13;;
22441;SDS011;11388;54.456;9.752;2023-07-20T01:45:38;2.67;;;1.30;;
22441;SDS011;11388;54.456;9.752;2023-07-20T01:48:17;2.25;;;1.20;;
22441;SDS011;11388;54.456;9.752;2023-07-20T01:50:43;2.08;;;1.10;;
22441;SDS011;11388;54.456;9.752;2023-07-20T01:53:11;2.80;;;1.17;;
22441;SDS011;11388;54.456;9.752;2023-07-20T01:55:40;1.95;;;1.00;;
22441;SDS011;11388;54.456;9.752;2023-07-20T01:58:09;2.45;;;1.02;;
22441;SDS011;11388;54.456;9.752;2023-07-20T02:00:36;1.55;;;0.90;;
22441;SDS011;11388;54.456;9.752;2023-07-20T02:03:06;2.90;;;1.08;;
22441;SDS011;11388;54.456;9.752;2023-07-20T02:05:54;1.63;;;1.00;;
22441;SDS011;11388;54.456;9.752;2023-07-20T02:08:25;5.85;;;1.05;;
22441;SDS011;11388;54.456;9.752;2023-07-20T02:11:01;1.92;;;1.00;;
22441;SDS011;11388;54.456;9.752;2023-07-20T02:13:49;2.83;;;0.93;;
22441;SDS011;11388;54.456;9.752;2023-07-20T02:16:17;1.33;;;0.80;;
22441;SDS011;11388;54.456;9.752;2023-07-20T02:22:06;2.00;;;0.70;;
22441;SDS011;11388;54.456;9.752;2023-07-20T02:27:28;1.05;;;0.88;;
22441;SDS011;11388;54.456;9.752;2023-07-20T02:32:53;1.17;;;0.80;;
22441;SDS011;11388;54.456;9.752;2023-07-20T02:38:56;2.45;;;0.93;;
22441;SDS011;11388;54.456;9.752;2023-07-20T02:41:27;1.73;;;0.80;;
22441;SDS011;11388;54.456;9.752;2023-07-20T02:43:53;3.65;;;0.90;;
22441;SDS011;11388;54.456;9.752;2023-07-20T02:46:41;1.77;;;0.95;;
22441;SDS011;11388;54.456;9.752;2023-07-20T02:49:22;2.25;;;1.02;;
22441;SDS011;11388;54.456;9.752;2023-07-20T02:51:54;1.48;;;0.68;;
22441;SDS011;11388;54.456;9.752;2023-07-20T02:54:31;3.20;;;0.80;;
22441;SDS011;11388;54.456;9.752;2023-07-20T02:57:29;1.08;;;0.60;;
22441;SDS011;11388;54.456;9.752;2023-07-20T03:00:13;2.15;;;0.88;;
22441;SDS011;11388;54.456;9.752;2023-07-20T03:02:46;2.72;;;0.88;;
22441;SDS011;11388;54.456;9.752;2023-07-20T03:05:33;2.08;;;0.60;;
22441;SDS011;11388;54.456;9.752;2023-07-20T03:11:11;1.40;;;0.70;;
22441;SDS011;11388;54.456;9.752;2023-07-20T03:13:51;2.03;;;0.75;;
22441;SDS011;11388;54.456;9.752;2023-07-20T03:16:42;2.25;;;0.88;;
22441;SDS011;11388;54.456;9.752;2023-07-20T03:19:20;3.58;;;0.70;;
22441;SDS011;11388;54.456;9.752;2023-07-20T03:31:01;2.40;;;0.95;;
22441;SDS011;11388;54.456;9.752;2023-07-20T03:33:39;1.40;;;0.70;;
22441;SDS011;11388;54.456;9.752;2023-07-20T03:36:12;1.60;;;0.80;;
22441;SDS011;11388;54.456;9.752;2023-07-20T03:38:41;2.75;;;1.00;;
22441;SDS011;11388;54.456;9.752;2023-07-20T03:41:24;2.17;;;0.90;;
22441;SDS011;11388;54.456;9.752;2023-07-20T03:43:57;5.43;;;1.00;;
22441;SDS011;11388;54.456;9.752;2023-07-20T03:46:53;1.55;;;0.90;;
22441;SDS011;11388;54.456;9.752;2023-07-20T03:53:02;2.50;;;0.95;;
22441;SDS011;11388;54.456;9.752;2023-07-20T03:58:35;2.13;;;1.00;;
22441;SDS011;11388;54.456;9.752;2023-07-20T04:01:16;2.20;;;1.00;;
22441;SDS011;11388;54.456;9.752;2023-07-20T04:04:07;2.40;;;0.77;;
22441;SDS011;11388;54.456;9.752;2023-07-20T04:06:50;1.63;;;0.80;;
22441;SDS011;11388;54.456;9.752;2023-07-20T04:09:22;2.22;;;1.02;;
22441;SDS011;11388;54.456;9.752;2023-07-20T04:17:31;2.88;;;1.08;;
22441;SDS011;11388;54.456;9.752;2023-07-20T04:20:15;2.58;;;0.90;;
22441;SDS011;11388;54.456;9.752;2023-07-20T04:22:59;2.30;;;0.90;;
22441;SDS011;11388;54.456;9.752;2023-07-20T04:25:28;2.30;;;1.02;;
22441;SDS011;11388;54.456;9.752;2023-07-20T04:28:07;4.07;;;1.00;;
22441;SDS011;11388;54.456;9.752;2023-07-20T04:34:02;2.65;;;0.80;;
22441;SDS011;11388;54.456;9.752;2023-07-20T04:36:58;6.93;;;1.00;;
22441;SDS011;11388;54.456;9.752;2023-07-20T04:39:47;3.85;;;0.90;;
22441;SDS011;11388;54.456;9.752;2023-07-20T04:42:33;5.60;;;0.90;;
22441;SDS011;11388;54.456;9.752;2023-07-20T04:45:10;3.03;;;0.90;;
22441;SDS011;11388;54.456;9.752;2023-07-20T04:47:47;2.85;;;0.90;;
22441;SDS011;11388;54.456;9.752;2023-07-20T04:50:22;2.72;;;0.88;;
22441;SDS011;11388;54.456;9.752;2023-07-20T04:52:50;4.28;;;1.00;;
22441;SDS011;11388;54.456;9.752;2023-07-20T04:55:21;4.07;;;0.95;;
22441;SDS011;11388;54.456;9.752;2023-07-20T04:58:11;5.68;;;1.20;;
22441;SDS011;11388;54.456;9.752;2023-07-20T05:00:50;3.92;;;1.20;;
22441;SDS011;11388;54.456;9.752;2023-07-20T05:03:27;3.38;;;1.30;;
22441;SDS011;11388;54.456;9.752;2023-07-20T05:05:53;6.90;;;1.38;;
22441;SDS011;11388;54.456;9.752;2023-07-20T05:08:19;6.72;;;1.10;;
22441;SDS011;11388;54.456;9.752;2023-07-20T05:10:47;6.00;;;1.25;;
22441;SDS011;11388;54.456;9.752;2023-07-20T05:13:13;2.75;;;1.10;;
22441;SDS011;11388;54.456;9.752;2023-07-20T05:18:15;3.08;;;1.23;;
22441;SDS011;11388;54.456;9.752;2023-07-20T05:20:45;2.63;;;1.30;;
22441;SDS011;11388;54.456;9.752;2023-07-20T05:23:14;4.88;;;1.55;;
22441;SDS011;11388;54.456;9.752;2023-07-20T05:25:42;4.60;;;1.30;;
22441;SDS011;11388;54.456;9.752;2023-07-20T05:28:08;3.33;;;1.40;;
22441;SDS011;11388;54.456;9.752;2023-07-20T05:30:34;6.32;;;1.45;;
22441;SDS011;11388;54.456;9.752;2023-07-20T05:32:59;6.88;;;1.80;;
22441;SDS011;11388;54.456;9.752;2023-07-20T05:35:25;9.07;;;1.90;;
22441;SDS011;11388;54.456;9.752;2023-07-20T05:37:51;6.38;;;1.50;;
22441;SDS011;11388;54.456;9.752;2023-07-20T05:40:17;5.38;;;1.42;;
22441;SDS011;11388;54.456;9.752;2023-07-20T05:42:47;4.55;;;1.33;;
22441;SDS011;11388;54.456;9.752;2023-07-20T05:45:14;5.90;;;1.35;;
22441;SDS011;11388;54.456;9.752;2023-07-20T05:47:41;4.68;;;1.38;;
22441;SDS011;11388;54.456;9.752;2023-07-20T05:50:08;5.55;;;1.30;;
22441;SDS011;11388;54.456;9.752;2023-07-20T05:52:34;4.82;;;1.10;;
22441;SDS011;11388;54.456;9.752;2023-07-20T05:55:00;3.90;;;1.33;;
22441;SDS011;11388;54.456;9.752;2023-07-20T05:57:26;3.78;;;1.50;;
22441;SDS011;11388;54.456;9.752;2023-07-20T05:59:52;4.70;;;1.50;;
22441;SDS011;11388;54.456;9.752;2023-07-20T06:02:18;5.53;;;1.48;;
22441;SDS011;11388;54.456;9.752;2023-07-20T06:04:43;3.95;;;1.40;;
22441;SDS011;11388;54.456;9.752;2023-07-20T06:07:09;6.45;;;1.80;;
22441;SDS011;11388;54.456;9.752;2023-07-20T06:09:35;4.18;;;1.67;;
22441;SDS011;11388;54.456;9.752;2023-07-20T06:12:01;4.25;;;1.80;;
22441;SDS011;11388;54.456;9.752;2023-07-20T06:14:30;5.00;;;1.55;;
22441;SDS011;11388;54.456;9.752;2023-07-20T06:16:59;5.00;;;1.75;;
22441;SDS011;11388;54.456;9.752;2023-07-20T06:19:28;5.68;;;1.55;;
22441;SDS011;11388;54.456;9.752;2023-07-20T06:21:54;6.97;;;1.58;;
22441;SDS011;11388;54.456;9.752;2023-07-20T06:24:20;3.88;;;1.60;;
22441;SDS011;11388;54.456;9.752;2023-07-20T06:26:45;4.60;;;1.58;;
22441;SDS011;11388;54.456;9.752;2023-07-20T06:29:11;6.80;;;1.73;;
22441;SDS011;11388;54.456;9.752;2023-07-20T06:31:37;8.18;;;1.63;;
22441;SDS011;11388;54.456;9.752;2023-07-20T06:34:03;5.72;;;1.60;;
22441;SDS011;11388;54.456;9.752;2023-07-20T06:36:29;4.55;;;1.52;;
22441;SDS011;11388;54.456;9.752;2023-07-20T06:38:55;3.85;;;1.45;;
22441;SDS011;11388;54.456;9.752;2023-07-20T06:41:21;5.35;;;1.63;;
22441;SDS011;11388;54.456;9.752;2023-07-20T06:43:55;5.75;;;1.60;;
22441;SDS011;11388;54.456;9.752;2023-07-20T06:46:24;5.75;;;1.50;;
22441;SDS011;11388;54.456;9.752;2023-07-20T06:48:50;5.97;;;1.67;;
22441;SDS011;11388;54.456;9.752;2023-07-20T06:51:16;6.05;;;1.63;;
22441;SDS011;11388;54.456;9.752;2023-07-20T06:53:43;6.35;;;1.27;;
22441;SDS011;11388;54.456;9.752;2023-07-20T06:56:09;5.85;;;1.55;;
22441;SDS011;11388;54.456;9.752;2023-07-20T06:58:34;4.63;;;1.50;;
22441;SDS011;11388;54.456;9.752;2023-07-20T07:01:04;4.93;;;1.50;;
22441;SDS011;11388;54.456;9.752;2023-07-20T07:03:31;5.07;;;1.42;;
22441;SDS011;11388;54.456;9.752;2023-07-20T07:05:57;6.85;;;1.33;;
22441;SDS011;11388;54.456;9.752;2023-07-20T07:08:23;4.43;;;1.25;;
22441;SDS011;11388;54.456;9.752;2023-07-20T07:10:53;5.22;;;1.35;;
22441;SDS011;11388;54.456;9.752;2023-07-20T07:13:19;6.57;;;1.27;;
22441;SDS011;11388;54.456;9.752;2023-07-20T07:15:45;5.32;;;1.30;;
22441;SDS011;11388;54.456;9.752;2023-07-20T07:18:12;9.75;;;1.35;;
22441;SDS011;11388;54.456;9.752;2023-07-20T07:20:41;7.22;;;1.48;;
22441;SDS011;11388;54.456;9.752;2023-07-20T07:23:07;4.15;;;1.23;;
22441;SDS011;11388;54.456;9.752;2023-07-20T07:25:32;6.70;;;1.48;;
22441;SDS011;11388;54.456;9.752;2023-07-20T07:27:58;4.88;;;1.55;;
22441;SDS011;11388;54.456;9.752;2023-07-20T07:30:25;6.65;;;1.73;;
22441;SDS011;11388;54.456;9.752;2023-07-20T07:32:50;6.63;;;1.50;;
22441;SDS011;11388;54.456;9.752;2023-07-20T07:35:17;4.82;;;1.30;;
22441;SDS011;11388;54.456;9.752;2023-07-20T07:37:42;4.97;;;1.35;;
22441;SDS011;11388;54.456;9.752;2023-07-20T07:40:08;4.93;;;1.38;;
22441;SDS011;11388;54.456;9.752;2023-07-20T07:42:36;5.15;;;1.20;;
22441;SDS011;11388;54.456;9.752;2023-07-20T07:45:02;5.32;;;1.10;;
22441;SDS011;11388;54.456;9.752;2023-07-20T07:47:28;8.70;;;1.40;;
22441;SDS011;11388;54.456;9.752;2023-07-20T07:49:54;4.72;;;0.90;;
22441;SDS011;11388;54.456;9.752;2023-07-20T07:52:20;2.88;;;0.90;;
22441;SDS011;11388;54.456;9.752;2023-07-20T07:54:46;7.03;;;0.90;;
22441;SDS011;11388;54.456;9.752;2023-07-20T07:57:13;2.60;;;0.70;;
22441;SDS011;11388;54.456;9.752;2023-07-20T07:59:39;3.83;;;0.90;;
22441;SDS011;11388;54.456;9.752;2023-07-20T08:02:05;3.35;;;0.70;;
22441;SDS011;11388;54.456;9.752;2023-07-20T08:04:31;2.42;;;0.82;;
22441;SDS011;11388;54.456;9.752;2023-07-20T08:06:56;3.30;;;0.80;;
22441;SDS011;11388;54.456;9.752;2023-07-20T08:09:24;2.88;;;0.57;;
22441;SDS011;11388;54.456;9.752;2023-07-20T08:11:50;3.58;;;0.73;;
22441;SDS011;11388;54.456;9.752;2023-07-20T08:14:16;4.20;;;0.93;;
22441;SDS011;11388;54.456;9.752;2023-07-20T08:16:41;4.88;;;1.02;;
22441;SDS011;11388;54.456;9.752;2023-07-20T08:19:08;3.97;;;0.95;;
22441;SDS011;11388;54.456;9.752;2023-07-20T08:21:34;4.90;;;0.90;;
22441;SDS011;11388;54.456;9.752;2023-07-20T08:23:59;2.58;;;0.80;;
22441;SDS011;11388;54.456;9.752;2023-07-20T08:26:25;2.47;;;0.60;;
22441;SDS011;11388;54.456;9.752;2023-07-20T08:28:51;1.95;;;0.50;;
22441;SDS011;11388;54.456;9.752;2023-07-20T08:31:17;4.40;;;0.68;;
22441;SDS011;11388;54.456;9.752;2023-07-20T08:33:43;4.13;;;0.73;;
22441;SDS011;11388;54.456;9.752;2023-07-20T09:39:51;2.35;;;0.40;;
22441;SDS011;11388;54.456;9.752;2023-07-20T10:05:40;6.47;;;1.05;;
22441;SDS011;11388;54.456;9.752;2023-07-20T10:08:12;4.18;;;1.00;;
22441;SDS011;11388;54.456;9.752;2023-07-20T10:10:41;5.28;;;1.00;;
22441;SDS011;11388;54.456;9.752;2023-07-20T10:13:19;5.90;;;1.27;;
22441;SDS011;11388;54.456;9.752;2023-07-20T10:15:51;4.57;;;0.80;;
22441;SDS011;11388;54.456;9.752;2023-07-20T10:20:51;4.35;;;1.00;;
22441;SDS011;11388;54.456;9.752;2023-07-20T10:23:20;5.80;;;0.90;;
22441;SDS011;11388;54.456;9.752;2023-07-20T10:25:48;4.30;;;0.90;;
22441;SDS011;11388;54.456;9.752;2023-07-20T11:02:43;5.38;;;1.30;;
22441;SDS011;11388;54.456;9.752;2023-07-20T11:05:44;4.22;;;0.93;;
22441;SDS011;11388;54.456;9.752;2023-07-20T11:08:38;4.45;;;0.93;;
